sensor_id;sensor_type;location;lat;lon;timestamp;temperature;humidity
22970;DHT22;11651;52.136;5.572;2022-07-03T00:02:40;19.60;99.90
22970;DHT22;11651;52.136;5.572;2022-07-03T00:05:06;18.60;99.90
22970;DHT22;11651;52.136;5.572;2022-07-03T00:08:03;19.00;99.90
22970;DHT22;11651;52.136;5.572;2022-07-03T00:14:44;19.00;99.90
22970;DHT22;11651;52.136;5.572;2022-07-03T00:31:19;18.60;99.90
22970;DHT22;11651;52.136;5.572;2022-07-03T00:40:09;18.30;99.90
22970;DHT22;11651;52.136;5.572;2022-07-03T00:42:51;18.20;99.90
22970;DHT22;11651;52.136;5.572;2022-07-03T00:45:23;18.60;99.90
22970;DHT22;11651;52.136;5.572;2022-07-03T01:13:17;17.70;99.90
22970;DHT22;11651;52.136;5.572;2022-07-03T01:16:30;17.50;99.90
22970;DHT22;11651;52.136;5.572;2022-07-03T01:27:29;18.10;99.90
22970;DHT22;11651;52.136;5.572;2022-07-03T01:30:07;17.40;99.90
22970;DHT22;11651;52.136;5.572;2022-07-03T01:32:47;17.30;99.90
22970;DHT22;11651;52.136;5.572;2022-07-03T01:35:23;18.60;99.90
22970;DHT22;11651;52.136;5.572;2022-07-03T01:37:54;18.60;99.90
22970;DHT22;11651;52.136;5.572;2022-07-03T01:40:20;16.60;99.90
22970;DHT22;11651;52.136;5.572;2022-07-03T01:42:52;17.30;99.90
22970;DHT22;11651;52.136;5.572;2022-07-03T01:45:21;17.10;99.90
22970;DHT22;11651;52.136;5.572;2022-07-03T01:47:49;18.80;99.90
22970;DHT22;11651;52.136;5.572;2022-07-03T01:50:17;18.80;99.90
22970;DHT22;11651;52.136;5.572;2022-07-03T01:52:44;18.60;99.90
22970;DHT22;11651;52.136;5.572;2022-07-03T01:55:32;17.70;99.90
22970;DHT22;11651;52.136;5.572;2022-07-03T01:58:01;17.50;99.90
22970;DHT22;11651;52.136;5.572;2022-07-03T02:00:30;17.30;99.90
22970;DHT22;11651;52.136;5.572;2022-07-03T02:03:01;17.00;99.90
22970;DHT22;11651;52.136;5.572;2022-07-03T02:05:38;16.90;99.90
22970;DHT22;11651;52.136;5.572;2022-07-03T02:08:23;16.90;99.90
22970;DHT22;11651;52.136;5.572;2022-07-03T02:11:15;17.10;99.90
22970;DHT22;11651;52.136;5.572;2022-07-03T02:14:11;15.60;99.90
22970;DHT22;11651;52.136;5.572;2022-07-03T02:17:11;16.80;99.90
22970;DHT22;11651;52.136;5.572;2022-07-03T02:19:54;16.70;99.90
22970;DHT22;11651;52.136;5.572;2022-07-03T02:22:37;16.60;99.90
22970;DHT22;11651;52.136;5.572;2022-07-03T02:27:39;16.50;99.90
22970;DHT22;11651;52.136;5.572;2022-07-03T02:30:07;18.10;99.90
22970;DHT22;11651;52.136;5.572;2022-07-03T02:32:38;16.50;99.90
22970;DHT22;11651;52.136;5.572;2022-07-03T02:35:10;16.80;99.90
22970;DHT22;11651;52.136;5.572;2022-07-03T02:37:47;16.50;99.90
22970;DHT22;11651;52.136;5.572;2022-07-03T02:40:26;17.70;99.90
22970;DHT22;11651;52.136;5.572;2022-07-03T02:43:14;16.40;99.90
22970;DHT22;11651;52.136;5.572;2022-07-03T02:45:57;16.40;99.90
22970;DHT22;11651;52.136;5.572;2022-07-03T02:48:39;17.40;99.90
22970;DHT22;11651;52.136;5.572;2022-07-03T02:51:13;17.90;99.90
22970;DHT22;11651;52.136;5.572;2022-07-03T02:53:53;17.90;99.90
22970;DHT22;11651;52.136;5.572;2022-07-03T03:01:48;16.30;99.90
22970;DHT22;11651;52.136;5.572;2022-07-03T03:04:30;17.80;99.90
22970;DHT22;11651;52.136;5.572;2022-07-03T03:07:08;16.30;99.90
22970;DHT22;11651;52.136;5.572;2022-07-03T03:09:51;16.30;99.90
22970;DHT22;11651;52.136;5.572;2022-07-03T03:12:35;17.80;99.90
22970;DHT22;11651;52.136;5.572;2022-07-03T03:15:04;15.10;99.90
22970;DHT22;11651;52.136;5.572;2022-07-03T03:17:43;16.20;99.90
22970;DHT22;11651;52.136;5.572;2022-07-03T03:20:16;15.90;99.90
22970;DHT22;11651;52.136;5.572;2022-07-03T03:23:04;15.80;99.90
22970;DHT22;11651;52.136;5.572;2022-07-03T03:25:34;17.50;99.90
22970;DHT22;11651;52.136;5.572;2022-07-03T03:28:00;17.50;99.90
22970;DHT22;11651;52.136;5.572;2022-07-03T03:30:26;16.30;99.90
22970;DHT22;11651;52.136;5.572;2022-07-03T03:32:51;17.00;99.90
22970;DHT22;11651;52.136;5.572;2022-07-03T03:35:17;17.20;99.90
22970;DHT22;11651;52.136;5.572;2022-07-03T03:37:45;16.30;99.90
22970;DHT22;11651;52.136;5.572;2022-07-03T03:40:11;17.60;99.90
22970;DHT22;11651;52.136;5.572;2022-07-03T03:42:37;16.30;99.90
22970;DHT22;11651;52.136;5.572;2022-07-03T03:45:03;16.30;99.90
22970;DHT22;11651;52.136;5.572;2022-07-03T03:47:29;16.30;99.90
22970;DHT22;11651;52.136;5.572;2022-07-03T03:49:54;17.70;99.90
22970;DHT22;11651;52.136;5.572;2022-07-03T03:52:20;16.30;99.90
22970;DHT22;11651;52.136;5.572;2022-07-03T03:54:48;17.80;99.90
22970;DHT22;11651;52.136;5.572;2022-07-03T03:57:19;17.90;99.90
22970;DHT22;11651;52.136;5.572;2022-07-03T03:59:45;16.80;99.90
22970;DHT22;11651;52.136;5.572;2022-07-03T04:02:11;16.70;99.90
22970;DHT22;11651;52.136;5.572;2022-07-03T04:04:37;16.80;99.90
22970;DHT22;11651;52.136;5.572;2022-07-03T04:07:03;16.60;99.90
22970;DHT22;11651;52.136;5.572;2022-07-03T04:09:30;16.60;99.90
22970;DHT22;11651;52.136;5.572;2022-07-03T04:11:56;16.30;99.90
22970;DHT22;11651;52.136;5.572;2022-07-03T04:14:21;17.00;99.90
22970;DHT22;11651;52.136;5.572;2022-07-03T04:16:57;17.80;99.90
22970;DHT22;11651;52.136;5.572;2022-07-03T04:19:25;16.60;99.90
22970;DHT22;11651;52.136;5.572;2022-07-03T04:21:53;17.40;99.90
22970;DHT22;11651;52.136;5.572;2022-07-03T04:24:21;18.40;99.90
22970;DHT22;11651;52.136;5.572;2022-07-03T04:26:56;16.70;99.90
22970;DHT22;11651;52.136;5.572;2022-07-03T04:29:35;17.90;99.90
22970;DHT22;11651;52.136;5.572;2022-07-03T04:32:00;17.80;99.90
22970;DHT22;11651;52.136;5.572;2022-07-03T04:34:26;18.40;99.90
22970;DHT22;11651;52.136;5.572;2022-07-03T04:36:52;17.40;99.90
22970;DHT22;11651;52.136;5.572;2022-07-03T04:39:17;17.10;99.90
22970;DHT22;11651;52.136;5.572;2022-07-03T04:41:43;17.50;99.90
22970;DHT22;11651;52.136;5.572;2022-07-03T04:44:18;18.80;99.90
22970;DHT22;11651;52.136;5.572;2022-07-03T04:50:06;16.90;99.90
22970;DHT22;11651;52.136;5.572;2022-07-03T04:52:55;17.60;99.90
22970;DHT22;11651;52.136;5.572;2022-07-03T04:55:40;17.70;99.90
22970;DHT22;11651;52.136;5.572;2022-07-03T04:58:28;18.80;99.90
22970;DHT22;11651;52.136;5.572;2022-07-03T05:00:53;18.90;99.90
22970;DHT22;11651;52.136;5.572;2022-07-03T05:03:19;19.50;99.90
22970;DHT22;11651;52.136;5.572;2022-07-03T05:05:45;19.20;99.90
22970;DHT22;11651;52.136;5.572;2022-07-03T05:08:10;18.20;99.90
22970;DHT22;11651;52.136;5.572;2022-07-03T05:10:59;18.50;99.90
22970;DHT22;11651;52.136;5.572;2022-07-03T05:13:25;17.60;99.90
22970;DHT22;11651;52.136;5.572;2022-07-03T05:16:13;18.70;99.90
22970;DHT22;11651;52.136;5.572;2022-07-03T05:21:54;18.90;99.90
22970;DHT22;11651;52.136;5.572;2022-07-03T05:24:25;19.10;99.90
22970;DHT22;11651;52.136;5.572;2022-07-03T05:26:55;19.10;99.90
22970;DHT22;11651;52.136;5.572;2022-07-03T05:29:21;20.80;99.90
22970;DHT22;11651;52.136;5.572;2022-07-03T05:31:47;18.40;99.90
22970;DHT22;11651;52.136;5.572;2022-07-03T05:34:12;20.60;99.90
22970;DHT22;11651;52.136;5.572;2022-07-03T05:36:38;20.40;99.90
22970;DHT22;11651;52.136;5.572;2022-07-03T05:39:04;19.60;99.90
22970;DHT22;11651;52.136;5.572;2022-07-03T05:42:05;20.70;99.90
22970;DHT22;11651;52.136;5.572;2022-07-03T05:44:38;20.90;99.90
22970;DHT22;11651;52.136;5.572;2022-07-03T05:47:12;21.10;99.90
22970;DHT22;11651;52.136;5.572;2022-07-03T05:49:37;21.10;99.90
22970;DHT22;11651;52.136;5.572;2022-07-03T05:52:03;21.80;99.90
22970;DHT22;11651;52.136;5.572;2022-07-03T05:57:43;19.50;99.90
22970;DHT22;11651;52.136;5.572;2022-07-03T06:00:29;20.10;99.90
22970;DHT22;11651;52.136;5.572;2022-07-03T06:03:25;21.40;99.90
22970;DHT22;11651;52.136;5.572;2022-07-03T06:06:00;20.90;99.90
22970;DHT22;11651;52.136;5.572;2022-07-03T06:08:36;20.70;99.90
22970;DHT22;11651;52.136;5.572;2022-07-03T06:11:02;22.10;99.90
22970;DHT22;11651;52.136;5.572;2022-07-03T06:13:27;20.50;99.90
22970;DHT22;11651;52.136;5.572;2022-07-03T06:15:53;22.10;99.90
22970;DHT22;11651;52.136;5.572;2022-07-03T06:18:19;19.30;99.90
22970;DHT22;11651;52.136;5.572;2022-07-03T06:20:44;21.50;99.90
22970;DHT22;11651;52.136;5.572;2022-07-03T06:23:10;21.20;99.90
22970;DHT22;11651;52.136;5.572;2022-07-03T06:25:35;21.30;99.90
22970;DHT22;11651;52.136;5.572;2022-07-03T06:28:01;22.80;99.90
22970;DHT22;11651;52.136;5.572;2022-07-03T06:30:29;21.30;99.90
22970;DHT22;11651;52.136;5.572;2022-07-03T06:32:54;22.60;99.90
22970;DHT22;11651;52.136;5.572;2022-07-03T06:35:20;22.10;99.90
22970;DHT22;11651;52.136;5.572;2022-07-03T06:37:46;21.80;99.90
22970;DHT22;11651;52.136;5.572;2022-07-03T06:40:14;22.90;99.90
22970;DHT22;11651;52.136;5.572;2022-07-03T06:42:45;21.90;99.90
22970;DHT22;11651;52.136;5.572;2022-07-03T06:45:11;22.00;99.90
22970;DHT22;11651;52.136;5.572;2022-07-03T06:47:38;22.30;99.90
22970;DHT22;11651;52.136;5.572;2022-07-03T06:50:05;22.10;99.90
22970;DHT22;11651;52.136;5.572;2022-07-03T06:52:31;22.20;99.90
22970;DHT22;11651;52.136;5.572;2022-07-03T06:54:56;22.60;99.90
22970;DHT22;11651;52.136;5.572;2022-07-03T06:57:22;22.40;99.90
22970;DHT22;11651;52.136;5.572;2022-07-03T06:59:48;22.50;99.90
22970;DHT22;11651;52.136;5.572;2022-07-03T07:02:13;23.20;99.90
22970;DHT22;11651;52.136;5.572;2022-07-03T07:04:39;23.20;99.90
22970;DHT22;11651;52.136;5.572;2022-07-03T07:07:05;22.80;99.90
22970;DHT22;11651;52.136;5.572;2022-07-03T07:09:31;22.90;99.90
22970;DHT22;11651;52.136;5.572;2022-07-03T07:11:56;23.10;99.90
22970;DHT22;11651;52.136;5.572;2022-07-03T07:14:22;23.00;99.90
22970;DHT22;11651;52.136;5.572;2022-07-03T07:16:47;23.10;99.90
22970;DHT22;11651;52.136;5.572;2022-07-03T07:19:13;24.20;99.90
22970;DHT22;11651;52.136;5.572;2022-07-03T07:21:39;23.10;99.90
22970;DHT22;11651;52.136;5.572;2022-07-03T07:24:05;24.50;99.90
22970;DHT22;11651;52.136;5.572;2022-07-03T07:26:30;23.20;99.90
22970;DHT22;11651;52.136;5.572;2022-07-03T07:28:56;24.80;99.90
22970;DHT22;11651;52.136;5.572;2022-07-03T07:31:21;23.40;99.90
22970;DHT22;11651;52.136;5.572;2022-07-03T07:33:47;23.80;99.90
22970;DHT22;11651;52.136;5.572;2022-07-03T07:36:13;23.80;99.90
22970;DHT22;11651;52.136;5.572;2022-07-03T07:38:38;23.70;99.90
22970;DHT22;11651;52.136;5.572;2022-07-03T07:41:04;23.90;99.90
22970;DHT22;11651;52.136;5.572;2022-07-03T07:43:30;24.20;99.90
22970;DHT22;11651;52.136;5.572;2022-07-03T07:45:55;23.90;99.90
22970;DHT22;11651;52.136;5.572;2022-07-03T07:48:21;24.90;99.90
22970;DHT22;11651;52.136;5.572;2022-07-03T07:50:46;24.20;99.90
22970;DHT22;11651;52.136;5.572;2022-07-03T07:53:12;24.40;99.90
22970;DHT22;11651;52.136;5.572;2022-07-03T07:55:37;24.40;99.90
22970;DHT22;11651;52.136;5.572;2022-07-03T07:58:03;24.60;99.90
22970;DHT22;11651;52.136;5.572;2022-07-03T08:00:29;25.20;99.90
22970;DHT22;11651;52.136;5.572;2022-07-03T08:02:54;24.80;99.90
22970;DHT22;11651;52.136;5.572;2022-07-03T08:05:38;25.00;99.90
22970;DHT22;11651;52.136;5.572;2022-07-03T08:10:39;25.10;99.90
22970;DHT22;11651;52.136;5.572;2022-07-03T08:13:05;25.40;99.90
22970;DHT22;11651;52.136;5.572;2022-07-03T08:15:31;25.60;99.90
22970;DHT22;11651;52.136;5.572;2022-07-03T08:17:57;25.50;99.90
22970;DHT22;11651;52.136;5.572;2022-07-03T08:20:23;25.30;99.90
22970;DHT22;11651;52.136;5.572;2022-07-03T08:22:49;25.10;99.90
22970;DHT22;11651;52.136;5.572;2022-07-03T08:25:14;24.90;99.90
22970;DHT22;11651;52.136;5.572;2022-07-03T08:27:40;25.00;99.90
22970;DHT22;11651;52.136;5.572;2022-07-03T08:30:06;25.00;99.90
22970;DHT22;11651;52.136;5.572;2022-07-03T08:32:32;25.00;99.90
22970;DHT22;11651;52.136;5.572;2022-07-03T08:34:58;24.40;99.90
22970;DHT22;11651;52.136;5.572;2022-07-03T08:37:24;24.80;99.90
22970;DHT22;11651;52.136;5.572;2022-07-03T08:39:50;24.70;99.90
22970;DHT22;11651;52.136;5.572;2022-07-03T08:42:16;25.20;99.90
22970;DHT22;11651;52.136;5.572;2022-07-03T08:45:02;25.70;99.90
22970;DHT22;11651;52.136;5.572;2022-07-03T08:58:01;25.20;99.90
22970;DHT22;11651;52.136;5.572;2022-07-03T09:19:50;26.60;99.90
22970;DHT22;11651;52.136;5.572;2022-07-03T09:32:44;27.30;99.90
22970;DHT22;11651;52.136;5.572;2022-07-03T11:58:27;24.80;99.90
22970;DHT22;11651;52.136;5.572;2022-07-03T12:02:15;24.70;99.90
22970;DHT22;11651;52.136;5.572;2022-07-03T12:11:23;25.80;99.90
22970;DHT22;11651;52.136;5.572;2022-07-03T12:18:01;26.10;99.90
22970;DHT22;11651;52.136;5.572;2022-07-03T12:24:37;26.10;99.90
22970;DHT22;11651;52.136;5.572;2022-07-03T12:27:28;25.80;99.90
22970;DHT22;11651;52.136;5.572;2022-07-03T12:29:56;25.00;99.90
22970;DHT22;11651;52.136;5.572;2022-07-03T12:35:41;26.30;99.90
22970;DHT22;11651;52.136;5.572;2022-07-03T12:41:34;27.60;99.90
22970;DHT22;11651;52.136;5.572;2022-07-03T12:44:00;27.00;99.90
22970;DHT22;11651;52.136;5.572;2022-07-03T12:53:31;27.60;99.90
22970;DHT22;11651;52.136;5.572;2022-07-03T12:59:30;27.30;99.90
22970;DHT22;11651;52.136;5.572;2022-07-03T13:02:08;26.30;99.90
22970;DHT22;11651;52.136;5.572;2022-07-03T13:04:50;26.00;99.90
22970;DHT22;11651;52.136;5.572;2022-07-03T13:07:27;25.40;99.90
22970;DHT22;11651;52.136;5.572;2022-07-03T13:10:02;24.80;99.90
22970;DHT22;11651;52.136;5.572;2022-07-03T13:12:27;23.30;99.90
22970;DHT22;11651;52.136;5.572;2022-07-03T13:15:00;24.70;99.90
22970;DHT22;11651;52.136;5.572;2022-07-03T13:21:00;24.40;99.90
22970;DHT22;11651;52.136;5.572;2022-07-03T13:27:05;24.30;99.90
22970;DHT22;11651;52.136;5.572;2022-07-03T13:29:40;24.10;99.90
22970;DHT22;11651;52.136;5.572;2022-07-03T13:32:15;24.80;99.90
22970;DHT22;11651;52.136;5.572;2022-07-03T13:34:44;24.70;99.90
22970;DHT22;11651;52.136;5.572;2022-07-03T13:37:09;24.80;99.90
22970;DHT22;11651;52.136;5.572;2022-07-03T13:43:26;26.00;99.90
22970;DHT22;11651;52.136;5.572;2022-07-03T13:45:55;26.30;99.90
22970;DHT22;11651;52.136;5.572;2022-07-03T14:02:09;28.60;99.90
22970;DHT22;11651;52.136;5.572;2022-07-03T14:07:46;26.90;99.90
22970;DHT22;11651;52.136;5.572;2022-07-03T14:10:13;26.60;99.90
22970;DHT22;11651;52.136;5.572;2022-07-03T14:12:56;26.80;99.90
22970;DHT22;11651;52.136;5.572;2022-07-03T14:15:36;26.40;99.90
22970;DHT22;11651;52.136;5.572;2022-07-03T14:18:01;27.20;99.90
22970;DHT22;11651;52.136;5.572;2022-07-03T14:20:30;26.60;99.90
22970;DHT22;11651;52.136;5.572;2022-07-03T14:22:56;26.30;99.90
22970;DHT22;11651;52.136;5.572;2022-07-03T14:25:21;26.80;99.90
22970;DHT22;11651;52.136;5.572;2022-07-03T14:27:47;26.60;99.90
22970;DHT22;11651;52.136;5.572;2022-07-03T14:30:31;27.10;99.90
22970;DHT22;11651;52.136;5.572;2022-07-03T14:33:16;27.10;99.90
22970;DHT22;11651;52.136;5.572;2022-07-03T14:35:42;27.70;99.90
22970;DHT22;11651;52.136;5.572;2022-07-03T14:38:18;28.10;99.90
22970;DHT22;11651;52.136;5.572;2022-07-03T14:40:44;28.40;99.90
22970;DHT22;11651;52.136;5.572;2022-07-03T14:43:10;29.30;99.90
22970;DHT22;11651;52.136;5.572;2022-07-03T14:45:35;28.60;99.90
22970;DHT22;11651;52.136;5.572;2022-07-03T14:48:01;28.60;99.90
22970;DHT22;11651;52.136;5.572;2022-07-03T14:50:26;28.50;99.90
22970;DHT22;11651;52.136;5.572;2022-07-03T14:52:52;28.60;99.90
22970;DHT22;11651;52.136;5.572;2022-07-03T14:55:18;28.10;99.90
22970;DHT22;11651;52.136;5.572;2022-07-03T15:00:11;27.00;99.90
22970;DHT22;11651;52.136;5.572;2022-07-03T15:05:12;26.40;99.90
22970;DHT22;11651;52.136;5.572;2022-07-03T15:10:32;27.00;99.90
22970;DHT22;11651;52.136;5.572;2022-07-03T15:12:59;27.10;99.90
22970;DHT22;11651;52.136;5.572;2022-07-03T15:15:25;27.40;99.90
22970;DHT22;11651;52.136;5.572;2022-07-03T15:17:52;26.90;99.90
22970;DHT22;11651;52.136;5.572;2022-07-03T15:20:19;27.50;99.90
22970;DHT22;11651;52.136;5.572;2022-07-03T15:22:47;27.00;99.90
22970;DHT22;11651;52.136;5.572;2022-07-03T15:25:16;26.70;99.90
22970;DHT22;11651;52.136;5.572;2022-07-03T15:27:48;26.70;99.90
22970;DHT22;11651;52.136;5.572;2022-07-03T15:30:16;26.60;99.90
22970;DHT22;11651;52.136;5.572;2022-07-03T15:32:50;25.60;99.90
22970;DHT22;11651;52.136;5.572;2022-07-03T15:35:17;26.30;99.90
22970;DHT22;11651;52.136;5.572;2022-07-03T15:37:49;26.00;99.90
22970;DHT22;11651;52.136;5.572;2022-07-03T15:40:25;25.20;99.90
22970;DHT22;11651;52.136;5.572;2022-07-03T15:43:18;25.30;99.90
22970;DHT22;11651;52.136;5.572;2022-07-03T15:51:20;25.50;99.90
22970;DHT22;11651;52.136;5.572;2022-07-03T15:53:57;25.50;99.90
22970;DHT22;11651;52.136;5.572;2022-07-03T15:56:29;25.90;99.90
22970;DHT22;11651;52.136;5.572;2022-07-03T15:59:09;25.40;99.90
22970;DHT22;11651;52.136;5.572;2022-07-03T16:05:13;25.20;99.90
22970;DHT22;11651;52.136;5.572;2022-07-03T16:07:43;25.10;99.90
22970;DHT22;11651;52.136;5.572;2022-07-03T16:10:11;26.00;99.90
22970;DHT22;11651;52.136;5.572;2022-07-03T16:12:38;25.60;99.90
22970;DHT22;11651;52.136;5.572;2022-07-03T16:15:05;26.70;99.90
22970;DHT22;11651;52.136;5.572;2022-07-03T16:17:32;26.20;99.90
22970;DHT22;11651;52.136;5.572;2022-07-03T16:20:00;27.10;99.90
22970;DHT22;11651;52.136;5.572;2022-07-03T16:22:27;26.70;99.90
22970;DHT22;11651;52.136;5.572;2022-07-03T16:24:56;26.50;99.90
22970;DHT22;11651;52.136;5.572;2022-07-03T16:27:25;26.90;99.90
22970;DHT22;11651;52.136;5.572;2022-07-03T16:29:57;27.00;99.90
22970;DHT22;11651;52.136;5.572;2022-07-03T16:32:34;26.40;99.90
22970;DHT22;11651;52.136;5.572;2022-07-03T16:35:30;25.80;99.90
22970;DHT22;11651;52.136;5.572;2022-07-03T16:38:04;25.20;99.90
22970;DHT22;11651;52.136;5.572;2022-07-03T16:40:31;24.90;99.90
22970;DHT22;11651;52.136;5.572;2022-07-03T16:43:04;24.60;99.90
22970;DHT22;11651;52.136;5.572;2022-07-03T16:45:32;24.60;99.90
22970;DHT22;11651;52.136;5.572;2022-07-03T16:48:27;26.00;99.90
22970;DHT22;11651;52.136;5.572;2022-07-03T16:50:56;24.80;99.90
22970;DHT22;11651;52.136;5.572;2022-07-03T16:53:30;24.80;99.90
22970;DHT22;11651;52.136;5.572;2022-07-03T16:55:56;24.70;99.90
22970;DHT22;11651;52.136;5.572;2022-07-03T16:58:23;24.50;99.90
22970;DHT22;11651;52.136;5.572;2022-07-03T17:00:49;25.40;99.90
22970;DHT22;11651;52.136;5.572;2022-07-03T17:03:17;24.40;99.90
22970;DHT22;11651;52.136;5.572;2022-07-03T17:05:43;24.70;99.90
22970;DHT22;11651;52.136;5.572;2022-07-03T17:08:11;25.10;99.90
22970;DHT22;11651;52.136;5.572;2022-07-03T17:10:40;25.10;99.90
22970;DHT22;11651;52.136;5.572;2022-07-03T17:13:06;25.90;99.90
22970;DHT22;11651;52.136;5.572;2022-07-03T17:15:31;25.60;99.90
22970;DHT22;11651;52.136;5.572;2022-07-03T17:18:03;24.90;99.90
22970;DHT22;11651;52.136;5.572;2022-07-03T17:20:34;25.30;99.90
22970;DHT22;11651;52.136;5.572;2022-07-03T17:23:10;25.00;99.90
22970;DHT22;11651;52.136;5.572;2022-07-03T17:25:58;25.30;99.90
22970;DHT22;11651;52.136;5.572;2022-07-03T17:28:28;24.60;99.90
22970;DHT22;11651;52.136;5.572;2022-07-03T17:31:03;23.80;99.90
22970;DHT22;11651;52.136;5.572;2022-07-03T17:33:29;24.20;99.90
22970;DHT22;11651;52.136;5.572;2022-07-03T17:36:08;24.00;99.90
22970;DHT22;11651;52.136;5.572;2022-07-03T17:38:40;23.60;99.90
22970;DHT22;11651;52.136;5.572;2022-07-03T17:41:06;23.80;99.90
22970;DHT22;11651;52.136;5.572;2022-07-03T17:43:32;23.70;99.90
22970;DHT22;11651;52.136;5.572;2022-07-03T17:45:58;23.60;99.90
22970;DHT22;11651;52.136;5.572;2022-07-03T17:48:25;23.50;99.90
22970;DHT22;11651;52.136;5.572;2022-07-03T17:50:54;23.30;99.90
22970;DHT22;11651;52.136;5.572;2022-07-03T17:53:35;24.80;99.90
22970;DHT22;11651;52.136;5.572;2022-07-03T17:56:22;23.90;99.90
22970;DHT22;11651;52.136;5.572;2022-07-03T17:58:56;22.90;99.90
22970;DHT22;11651;52.136;5.572;2022-07-03T18:01:29;22.90;99.90
22970;DHT22;11651;52.136;5.572;2022-07-03T18:04:31;24.40;99.90
22970;DHT22;11651;52.136;5.572;2022-07-03T18:10:22;24.60;99.90
22970;DHT22;11651;52.136;5.572;2022-07-03T18:13:21;24.70;99.90
22970;DHT22;11651;52.136;5.572;2022-07-03T18:15:58;24.80;99.90
22970;DHT22;11651;52.136;5.572;2022-07-03T18:18:51;26.20;99.90
22970;DHT22;11651;52.136;5.572;2022-07-03T18:21:20;25.20;99.90
22970;DHT22;11651;52.136;5.572;2022-07-03T18:23:54;24.70;99.90
22970;DHT22;11651;52.136;5.572;2022-07-03T18:29:56;24.50;99.90
22970;DHT22;11651;52.136;5.572;2022-07-03T18:32:33;24.80;99.90
22970;DHT22;11651;52.136;5.572;2022-07-03T18:35:05;24.10;99.90
22970;DHT22;11651;52.136;5.572;2022-07-03T18:37:37;24.60;99.90
22970;DHT22;11651;52.136;5.572;2022-07-03T18:40:14;25.40;99.90
22970;DHT22;11651;52.136;5.572;2022-07-03T18:42:40;23.30;99.90
22970;DHT22;11651;52.136;5.572;2022-07-03T18:45:18;24.50;99.90
22970;DHT22;11651;52.136;5.572;2022-07-03T18:47:47;24.50;99.90
22970;DHT22;11651;52.136;5.572;2022-07-03T18:50:50;24.30;99.90
22970;DHT22;11651;52.136;5.572;2022-07-03T18:53:37;23.30;99.90
22970;DHT22;11651;52.136;5.572;2022-07-03T18:56:10;22.90;99.90
22970;DHT22;11651;52.136;5.572;2022-07-03T18:58:48;23.40;99.90
22970;DHT22;11651;52.136;5.572;2022-07-03T19:01:21;22.50;99.90
22970;DHT22;11651;52.136;5.572;2022-07-03T19:07:04;20.90;99.90
22970;DHT22;11651;52.136;5.572;2022-07-03T19:09:35;21.80;99.90
22970;DHT22;11651;52.136;5.572;2022-07-03T19:12:13;23.20;99.90
22970;DHT22;11651;52.136;5.572;2022-07-03T19:17:45;21.40;99.90
22970;DHT22;11651;52.136;5.572;2022-07-03T19:20:11;21.20;99.90
22970;DHT22;11651;52.136;5.572;2022-07-03T19:22:37;22.30;99.90
22970;DHT22;11651;52.136;5.572;2022-07-03T19:25:03;19.80;99.90
22970;DHT22;11651;52.136;5.572;2022-07-03T19:27:29;21.00;99.90
22970;DHT22;11651;52.136;5.572;2022-07-03T19:29:58;20.90;99.90
22970;DHT22;11651;52.136;5.572;2022-07-03T19:32:26;21.30;99.90
22970;DHT22;11651;52.136;5.572;2022-07-03T19:35:08;20.80;99.90
22970;DHT22;11651;52.136;5.572;2022-07-03T19:40:53;21.80;99.90
22970;DHT22;11651;52.136;5.572;2022-07-03T19:43:19;20.30;99.90
22970;DHT22;11651;52.136;5.572;2022-07-03T19:45:44;21.90;99.90
22970;DHT22;11651;52.136;5.572;2022-07-03T19:48:12;20.30;99.90
22970;DHT22;11651;52.136;5.572;2022-07-03T19:50:46;20.20;99.90
22970;DHT22;11651;52.136;5.572;2022-07-03T19:53:32;20.10;99.90
22970;DHT22;11651;52.136;5.572;2022-07-03T19:56:02;20.00;99.90
22970;DHT22;11651;52.136;5.572;2022-07-03T19:58:31;19.40;99.90
22970;DHT22;11651;52.136;5.572;2022-07-03T20:01:02;19.80;99.90
22970;DHT22;11651;52.136;5.572;2022-07-03T20:03:51;19.70;99.90
22970;DHT22;11651;52.136;5.572;2022-07-03T20:06:26;20.50;99.90
22970;DHT22;11651;52.136;5.572;2022-07-03T20:09:15;19.70;99.90
22970;DHT22;11651;52.136;5.572;2022-07-03T20:11:41;19.40;99.90
22970;DHT22;11651;52.136;5.572;2022-07-03T20:14:09;20.00;99.90
22970;DHT22;11651;52.136;5.572;2022-07-03T20:16:35;20.90;99.90
22970;DHT22;11651;52.136;5.572;2022-07-03T20:19:02;19.30;99.90
22970;DHT22;11651;52.136;5.572;2022-07-03T20:21:28;19.30;99.90
22970;DHT22;11651;52.136;5.572;2022-07-03T20:23:54;19.20;99.90
22970;DHT22;11651;52.136;5.572;2022-07-03T20:27:19;20.60;99.90
22970;DHT22;11651;52.136;5.572;2022-07-03T20:57:51;17.90;99.90
22970;DHT22;11651;52.136;5.572;2022-07-03T21:00:25;17.90;99.90
22970;DHT22;11651;52.136;5.572;2022-07-03T22:25:02;17.60;99.90
22970;DHT22;11651;52.136;5.572;2022-07-03T22:27:36;15.60;99.90
22970;DHT22;11651;52.136;5.572;2022-07-03T22:30:30;17.20;99.90
22970;DHT22;11651;52.136;5.572;2022-07-03T22:51:48;17.30;99.90
22970;DHT22;11651;52.136;5.572;2022-07-03T22:54:16;16.50;99.90
22970;DHT22;11651;52.136;5.572;2022-07-03T22:56:49;15.20;99.90
22970;DHT22;11651;52.136;5.572;2022-07-03T22:59:18;16.40;99.90
22970;DHT22;11651;52.136;5.572;2022-07-03T23:02:21;16.80;99.90
22970;DHT22;11651;52.136;5.572;2022-07-03T23:05:08;16.30;99.90
22970;DHT22;11651;52.136;5.572;2022-07-03T23:07:33;16.30;99.90
22970;DHT22;11651;52.136;5.572;2022-07-03T23:09:59;17.10;99.90
22970;DHT22;11651;52.136;5.572;2022-07-03T23:12:25;16.90;99.90
22970;DHT22;11651;52.136;5.572;2022-07-03T23:14:50;16.10;99.90
22970;DHT22;11651;52.136;5.572;2022-07-03T23:17:16;16.60;99.90
22970;DHT22;11651;52.136;5.572;2022-07-03T23:20:15;16.70;99.90
22970;DHT22;11651;52.136;5.572;2022-07-03T23:23:30;16.40;99.90
22970;DHT22;11651;52.136;5.572;2022-07-03T23:25:56;16.00;99.90
22970;DHT22;11651;52.136;5.572;2022-07-03T23:28:30;16.10;99.90
22970;DHT22;11651;52.136;5.572;2022-07-03T23:30:56;15.90;99.90
22970;DHT22;11651;52.136;5.572;2022-07-03T23:33:22;15.90;99.90
22970;DHT22;11651;52.136;5.572;2022-07-03T23:35:48;16.50;99.90
22970;DHT22;11651;52.136;5.572;2022-07-03T23:38:26;15.60;99.90
22970;DHT22;11651;52.136;5.572;2022-07-03T23:41:01;15.90;99.90
22970;DHT22;11651;52.136;5.572;2022-07-03T23:43:38;15.80;99.90
22970;DHT22;11651;52.136;5.572;2022-07-03T23:46:03;17.20;99.90
22970;DHT22;11651;52.136;5.572;2022-07-03T23:48:29;16.20;99.90
22970;DHT22;11651;52.136;5.572;2022-07-03T23:51:18;17.20;99.90
22970;DHT22;11651;52.136;5.572;2022-07-03T23:53:44;17.20;99.90
22970;DHT22;11651;52.136;5.572;2022-07-03T23:56:11;16.90;99.90
22970;DHT22;11651;52.136;5.572;2022-07-03T23:58:37;15.90;99.90
